Time;durP1;ratioP1;P1;durP2;ratioP2;P2;SDS_P1;SDS_P2;PMS_P1;PMS_P2;Temp;Humidity;BMP_temperature;BMP_pressure;BME280_temperature;BME280_humidity;BME280_pressure;Samples;Min_cycle;Max_cycle;Signal;HPM_P1;HPM_P2
2023/01/08 00:01:17;;;;;;;1.15;1.05;;;13.50;66.60;;;;;;5039810;28;20658;-51
2023/01/08 00:03:44;;;;;;;1.75;1.35;;;13.50;66.70;;;;;;5050355;28;20045;-50
2023/01/08 00:06:16;;;;;;;1.80;1.70;;;13.50;66.70;;;;;;5049863;28;20051;-52
2023/01/08 00:08:47;;;;;;;1.38;1.15;;;13.50;66.70;;;;;;5041890;28;20043;-53
2023/01/08 00:11:16;;;;;;;1.27;1.17;;;13.50;66.80;;;;;;5044348;28;20045;-59
2023/01/08 00:13:43;;;;;;;1.58;1.48;;;13.40;66.70;;;;;;5046341;28;20053;-52
2023/01/08 00:16:17;;;;;;;1.90;1.55;;;13.50;66.80;;;;;;5046447;28;20103;-52
2023/01/08 00:18:44;;;;;;;2.22;1.45;;;13.60;66.90;;;;;;5039425;28;20068;-53
2023/01/08 00:21:12;;;;;;;1.20;1.10;;;13.60;66.90;;;;;;5044866;28;20122;-52
2023/01/08 00:23:48;;;;;;;1.42;1.30;;;13.60;66.90;;;;;;5042981;28;20107;-51
2023/01/08 00:26:17;;;;;;;1.52;1.42;;;13.60;66.80;;;;;;5049578;28;20505;-50
2023/01/08 00:28:45;;;;;;;1.63;1.50;;;13.70;66.80;;;;;;5047905;28;20040;-51
2023/01/08 00:31:13;;;;;;;2.85;1.40;;;13.70;66.80;;;;;;5047661;28;20454;-54
2023/01/08 00:33:40;;;;;;;1.92;1.58;;;13.70;66.70;;;;;;5049381;28;20071;-53
2023/01/08 00:36:10;;;;;;;1.70;1.40;;;13.80;66.80;;;;;;5031935;28;20148;-53
2023/01/08 00:38:37;;;;;;;1.73;1.58;;;13.70;66.70;;;;;;5042129;28;20527;-53
2023/01/08 00:41:04;;;;;;;1.65;1.55;;;13.70;66.70;;;;;;5049816;28;20049;-53
2023/01/08 00:43:33;;;;;;;3.08;1.42;;;13.70;66.50;;;;;;5049742;28;20412;-56
2023/01/08 00:46:04;;;;;;;2.22;1.42;;;13.70;66.40;;;;;;5049832;28;20045;-53
2023/01/08 00:48:38;;;;;;;2.08;1.88;;;13.70;66.40;;;;;;5043372;28;20041;-52
2023/01/08 00:51:07;;;;;;;1.50;1.40;;;13.70;66.40;;;;;;5032121;28;20466;-54
2023/01/08 00:53:38;;;;;;;2.22;1.70;;;13.70;66.40;;;;;;5049431;28;20087;-52
2023/01/08 00:56:07;;;;;;;2.20;1.73;;;13.70;66.50;;;;;;5043105;28;20106;-51
2023/01/08 00:58:36;;;;;;;1.95;1.70;;;13.70;66.50;;;;;;5043906;28;20053;-50
2023/01/08 01:01:09;;;;;;;4.20;1.65;;;13.70;66.50;;;;;;5049520;28;20041;-53
2023/01/08 01:03:36;;;;;;;3.40;2.00;;;13.70;66.70;;;;;;5049159;28;20041;-53
2023/01/08 01:06:04;;;;;;;2.00;1.90;;;13.70;66.50;;;;;;5031852;28;20045;-53
2023/01/08 01:08:31;;;;;;;2.70;2.08;;;13.70;66.60;;;;;;5043412;28;20044;-52
2023/01/08 01:11:04;;;;;;;2.58;2.08;;;13.80;66.50;;;;;;5047847;28;20566;-52
2023/01/08 01:13:36;;;;;;;2.70;1.83;;;13.70;66.50;;;;;;5046063;28;20064;-51
2023/01/08 01:16:03;;;;;;;3.00;1.80;;;13.70;66.40;;;;;;5042099;28;20132;-52
2023/01/08 01:18:35;;;;;;;1.98;1.77;;;13.70;66.40;;;;;;5048179;28;20075;-53
2023/01/08 01:21:08;;;;;;;3.22;2.20;;;13.70;66.40;;;;;;5048629;28;20044;-54
2023/01/08 01:23:36;;;;;;;1.85;1.70;;;13.70;66.40;;;;;;5048871;28;20473;-51
2023/01/08 01:26:05;;;;;;;1.70;1.60;;;13.70;66.50;;;;;;5041962;28;20055;-54
2023/01/08 01:28:35;;;;;;;2.50;1.90;;;13.70;66.50;;;;;;5040776;28;20124;-56
2023/01/08 01:31:02;;;;;;;1.80;1.70;;;13.70;66.50;;;;;;5048457;28;20064;-56
2023/01/08 01:33:33;;;;;;;2.03;1.85;;;13.70;66.60;;;;;;5052315;28;20061;-48
2023/01/08 01:36:04;;;;;;;2.20;2.00;;;13.70;66.50;;;;;;5046349;28;20037;-55
2023/01/08 01:38:33;;;;;;;3.03;2.15;;;13.70;66.50;;;;;;5033129;28;20057;-53
2023/01/08 01:41:00;;;;;;;2.75;1.98;;;13.70;66.50;;;;;;5052274;28;20045;-53
2023/01/08 01:43:40;;;;;;;3.78;2.15;;;13.70;66.50;;;;;;5050241;28;20124;-50
2023/01/08 01:46:34;;;;;;;2.63;1.73;;;13.80;66.40;;;;;;5052349;28;20525;-58
2023/01/08 01:49:16;;;;;;;2.85;1.80;;;13.80;66.30;;;;;;5047327;28;20539;-56
2023/01/08 01:52:01;;;;;;;2.17;1.80;;;13.80;66.20;;;;;;5049711;28;20119;-51
2023/01/08 01:54:30;;;;;;;3.05;2.20;;;13.80;66.10;;;;;;5047034;28;20112;-53
2023/01/08 01:56:58;;;;;;;2.15;1.55;;;13.80;66.10;;;;;;5051493;28;20057;-50
2023/01/08 01:59:32;;;;;;;2.28;1.88;;;13.80;66.00;;;;;;5052448;28;20079;-53
2023/01/08 02:02:01;;;;;;;1.80;1.70;;;13.80;65.90;;;;;;5047906;28;20041;-53
2023/01/08 02:04:28;;;;;;;3.22;1.70;;;13.80;65.90;;;;;;5035217;28;20132;-51
2023/01/08 02:07:36;;;;;;;2.65;2.30;;;13.80;65.80;;;;;;5052173;28;20044;-53
2023/01/08 02:10:40;;;;;;;2.65;2.20;;;13.90;65.80;;;;;;5009617;28;20119;-49
2023/01/08 02:13:21;;;;;;;2.65;1.65;;;13.90;65.60;;;;;;5040674;28;20135;-50
2023/01/08 02:16:03;;;;;;;2.50;1.67;;;13.90;65.60;;;;;;5045431;28;20064;-53
2023/01/08 02:19:08;;;;;;;2.75;1.48;;;13.90;66.20;;;;;;5052155;28;20033;-54
2023/01/08 02:22:02;;;;;;;2.00;1.33;;;13.90;65.40;;;;;;5046271;28;20053;-53
2023/01/08 02:25:00;;;;;;;1.95;1.60;;;13.90;65.40;;;;;;5049973;28;20047;-53
2023/01/08 02:27:32;;;;;;;1.73;1.63;;;13.90;65.40;;;;;;5025898;28;20094;-54
2023/01/08 02:29:59;;;;;;;3.33;2.10;;;13.90;65.40;;;;;;5049323;28;20671;-51
2023/01/08 02:32:31;;;;;;;2.50;1.70;;;13.90;65.40;;;;;;5043636;28;20029;-52
2023/01/08 02:35:02;;;;;;;3.75;2.08;;;13.90;65.40;;;;;;5052119;28;20068;-55
2023/01/08 02:37:36;;;;;;;2.95;1.33;;;13.90;65.40;;;;;;5051554;28;20440;-54
2023/01/08 02:40:29;;;;;;;4.60;1.92;;;13.90;65.40;;;;;;5046606;28;20068;-53
2023/01/08 02:43:13;;;;;;;2.05;1.58;;;13.90;65.30;;;;;;5045238;28;20055;-50
2023/01/08 02:45:50;;;;;;;1.13;1.02;;;13.90;65.20;;;;;;5048015;28;20055;-50
2023/01/08 02:48:59;;;;;;;1.60;1.50;;;13.90;65.30;;;;;;5051727;28;20033;-53
2023/01/08 02:51:52;;;;;;;1.50;1.30;;;13.90;65.30;;;;;;5045684;28;20076;-53
2023/01/08 02:54:25;;;;;;;1.88;1.38;;;13.90;66.00;;;;;;5051992;28;20585;-50
2023/01/08 02:57:23;;;;;;;1.30;1.20;;;13.90;65.30;;;;;;5043898;28;20033;-54
2023/01/08 02:59:51;;;;;;;1.40;1.10;;;13.80;65.20;;;;;;5030095;28;20080;-53
2023/01/08 03:02:23;;;;;;;2.33;1.25;;;13.80;65.20;;;;;;5047282;28;20064;-55
2023/01/08 03:05:00;;;;;;;3.83;1.70;;;13.80;65.90;;;;;;5051845;28;20048;-50
2023/01/08 03:07:27;;;;;;;1.98;1.73;;;13.90;65.20;;;;;;5051053;28;20119;-50
2023/01/08 03:09:54;;;;;;;1.45;1.35;;;13.80;65.10;;;;;;5045879;28;20481;-56
2023/01/08 03:12:34;;;;;;;2.15;1.02;;;13.80;65.20;;;;;;5050846;28;20396;-53
2023/01/08 03:15:07;;;;;;;1.83;1.05;;;13.80;65.10;;;;;;5027082;28;20127;-52
2023/01/08 03:17:40;;;;;;;;;;;13.80;65.10;;;;;;5047629;28;20033;-55
2023/01/08 03:20:12;;;;;;;2.63;1.23;;;13.80;65.20;;;;;;5051094;28;19963;-56
2023/01/08 03:22:44;;;;;;;2.03;1.00;;;13.80;65.00;;;;;;5049981;28;20490;-53
2023/01/08 03:25:19;;;;;;;1.13;1.02;;;13.80;65.10;;;;;;5048483;28;20120;-53
2023/01/08 03:27:54;;;;;;;1.42;1.33;;;13.80;65.10;;;;;;5044382;28;20064;-49
2023/01/08 03:30:24;;;;;;;1.98;1.40;;;13.90;65.10;;;;;;5033607;28;20037;-54
2023/01/08 03:32:54;;;;;;;3.25;1.30;;;13.70;65.10;;;;;;5042093;28;20489;-53
2023/01/08 03:35:22;;;;;;;1.23;1.10;;;13.70;65.10;;;;;;5050917;28;20137;-53
2023/01/08 03:38:05;;;;;;;1.40;0.95;;;13.70;65.20;;;;;;5038232;28;20047;-53
2023/01/08 03:40:44;;;;;;;2.28;0.90;;;13.70;65.20;;;;;;5050973;28;20552;-54
2023/01/08 03:43:13;;;;;;;2.08;1.13;;;13.70;65.30;;;;;;5050202;28;20609;-53
2023/01/08 03:45:50;;;;;;;1.80;1.10;;;13.70;65.40;;;;;;5047948;28;20059;-53
2023/01/08 03:48:21;;;;;;;0.98;0.90;;;13.70;65.30;;;;;;5047484;28;20102;-50
2023/01/08 03:50:50;;;;;;;0.98;0.77;;;13.70;65.20;;;;;;5050300;28;20537;-51
2023/01/08 03:53:19;;;;;;;1.80;1.30;;;13.70;65.20;;;;;;5050107;28;20044;-52
2023/01/08 03:55:49;;;;;;;1.13;0.80;;;13.70;65.20;;;;;;5042595;28;20090;-53
2023/01/08 03:58:17;;;;;;;2.50;0.80;;;13.80;65.20;;;;;;5050145;28;20428;-52
2023/01/08 04:00:46;;;;;;;1.05;0.80;;;13.80;65.20;;;;;;5050091;28;20079;-53
2023/01/08 04:03:13;;;;;;;2.30;0.80;;;13.70;65.20;;;;;;5045614;28;20493;-51
2023/01/08 04:05:43;;;;;;;0.60;0.60;;;13.80;65.20;;;;;;5045891;28;20534;-53
2023/01/08 04:08:10;;;;;;;0.90;0.90;;;13.80;65.10;;;;;;5049729;28;20616;-51
2023/01/08 04:10:37;;;;;;;1.23;0.82;;;13.70;64.90;;;;;;5049304;28;20408;-53
2023/01/08 04:13:12;;;;;;;1.83;0.75;;;13.80;64.90;;;;;;5049214;28;20037;-53
2023/01/08 04:15:39;;;;;;;1.00;0.77;;;13.80;64.90;;;;;;5046769;28;20570;-51
2023/01/08 04:18:08;;;;;;;0.75;0.68;;;13.70;64.80;;;;;;5049804;28;20033;-52
2023/01/08 04:20:41;;;;;;;1.00;0.60;;;13.70;64.80;;;;;;5049093;28;20041;-53
2023/01/08 04:23:16;;;;;;;1.17;0.52;;;13.70;64.80;;;;;;5046830;28;20052;-54
2023/01/08 04:25:42;;;;;;;1.02;0.77;;;13.70;64.80;;;;;;5012577;28;20051;-52
2023/01/08 04:28:09;;;;;;;1.60;0.73;;;13.70;64.60;;;;;;5047499;28;20087;-50
2023/01/08 04:30:36;;;;;;;0.68;0.40;;;13.70;64.70;;;;;;5046622;28;20064;-55
2023/01/08 04:33:03;;;;;;;0.65;0.43;;;13.60;64.60;;;;;;5047590;28;20037;-50
2023/01/08 04:35:30;;;;;;;1.08;0.40;;;13.60;64.70;;;;;;5049122;28;20124;-52
2023/01/08 04:37:56;;;;;;;0.52;0.52;;;13.60;64.70;;;;;;5049040;28;20125;-51
2023/01/08 04:40:23;;;;;;;0.60;0.50;;;13.60;64.70;;;;;;5046280;28;20064;-53
2023/01/08 04:42:50;;;;;;;0.47;0.38;;;13.60;64.80;;;;;;5041902;28;20056;-54
2023/01/08 04:45:18;;;;;;;0.40;0.30;;;13.60;64.90;;;;;;5049279;28;20559;-51
2023/01/08 04:47:47;;;;;;;1.00;0.40;;;13.60;64.90;;;;;;5047606;28;20145;-53
2023/01/08 04:50:22;;;;;;;3.13;0.95;;;13.60;64.90;;;;;;5046241;28;20064;-53
2023/01/08 04:52:51;;;;;;;0.55;0.32;;;13.60;65.00;;;;;;5039240;28;20041;-53
2023/01/08 04:55:21;;;;;;;0.35;0.35;;;13.60;65.10;;;;;;5039074;28;20037;-52
2023/01/08 04:57:47;;;;;;;0.60;0.40;;;13.60;64.90;;;;;;5034361;28;20045;-56
2023/01/08 05:00:17;;;;;;;2.45;0.80;;;13.60;64.90;;;;;;5041167;28;20128;-51
2023/01/08 05:02:46;;;;;;;0.68;0.68;;;13.60;64.90;;;;;;5047771;28;20053;-52
2023/01/08 05:05:13;;;;;;;0.73;0.40;;;13.60;64.90;;;;;;5049751;28;20049;-51
2023/01/08 05:07:42;;;;;;;0.55;0.40;;;13.60;64.90;;;;;;5050882;28;20095;-55
2023/01/08 05:10:11;;;;;;;0.73;0.60;;;13.60;64.80;;;;;;5045706;28;20055;-53
2023/01/08 05:12:41;;;;;;;2.05;0.45;;;13.60;64.80;;;;;;5052611;28;20051;-56
2023/01/08 05:15:14;;;;;;;1.65;0.70;;;13.60;65.40;;;;;;5051934;28;20033;-52
2023/01/08 05:17:43;;;;;;;1.33;0.40;;;13.70;64.70;;;;;;5046556;28;20522;-55
2023/01/08 05:20:16;;;;;;;1.47;0.87;;;13.70;64.80;;;;;;5050724;28;20511;-54
2023/01/08 05:22:47;;;;;;;1.05;0.73;;;13.70;64.90;;;;;;5052434;28;20687;-49
2023/01/08 05:25:13;;;;;;;1.00;0.60;;;13.70;65.10;;;;;;5052804;28;20047;-55
2023/01/08 05:27:40;;;;;;;1.85;0.60;;;13.70;65.60;;;;;;5052266;28;20776;-51
2023/01/08 05:30:12;;;;;;;1.33;0.50;;;13.70;66.10;;;;;;5050435;28;20408;-51
2023/01/08 05:32:39;;;;;;;0.30;0.30;;;13.60;66.00;;;;;;5052685;28;20533;-56
2023/01/08 05:35:07;;;;;;;2.00;0.70;;;13.60;66.20;;;;;;5052736;28;20051;-50
2023/01/08 05:37:39;;;;;;;1.63;0.50;;;13.50;66.30;;;;;;5046342;28;20072;-53
2023/01/08 05:40:12;;;;;;;1.90;0.57;;;13.50;66.80;;;;;;5046194;28;20140;-52
2023/01/08 05:42:39;;;;;;;0.43;0.40;;;13.40;66.90;;;;;;5052681;28;20587;-53
2023/01/08 05:45:09;;;;;;;1.10;0.70;;;13.30;66.90;;;;;;5052551;28;20044;-51
2023/01/08 05:47:37;;;;;;;0.77;0.50;;;13.30;67.00;;;;;;5048046;28;20051;-49
2023/01/08 05:50:13;;;;;;;1.50;0.30;;;13.20;67.10;;;;;;5053116;28;20033;-52
2023/01/08 05:52:42;;;;;;;3.13;1.02;;;13.20;67.20;;;;;;5051987;28;20045;-50
2023/01/08 05:55:11;;;;;;;3.65;1.13;;;13.10;67.20;;;;;;5048078;28;20125;-50
2023/01/08 05:57:39;;;;;;;1.20;0.52;;;13.00;67.00;;;;;;5026753;28;20049;-52
2023/01/08 06:00:08;;;;;;;1.60;0.60;;;12.90;66.90;;;;;;5052935;28;20044;-53
2023/01/08 06:02:37;;;;;;;1.95;0.60;;;12.80;67.00;;;;;;5052049;28;20640;-56
2023/01/08 06:05:06;;;;;;;2.22;0.85;;;12.80;67.30;;;;;;5050285;28;20047;-52
2023/01/08 06:07:38;;;;;;;1.52;0.50;;;12.70;67.30;;;;;;5049321;28;20079;-55
2023/01/08 06:10:07;;;;;;;1.92;0.80;;;12.60;67.60;;;;;;5052909;28;20041;-53
2023/01/08 06:12:36;;;;;;;1.92;0.52;;;12.50;67.40;;;;;;5032515;28;20091;-58
2023/01/08 06:15:07;;;;;;;2.75;0.95;;;12.40;67.50;;;;;;5031172;28;20104;-51
2023/01/08 06:17:41;;;;;;;1.33;0.80;;;12.40;67.50;;;;;;5039461;28;20067;-52
2023/01/08 06:20:09;;;;;;;2.47;1.20;;;12.30;67.60;;;;;;5052133;28;20037;-55
2023/01/08 06:22:37;;;;;;;0.90;0.40;;;12.30;67.90;;;;;;5033317;28;20045;-50
2023/01/08 06:25:06;;;;;;;2.22;0.50;;;12.30;67.90;;;;;;5034380;28;20067;-57
2023/01/08 06:27:33;;;;;;;3.13;0.60;;;12.20;67.80;;;;;;5033658;28;20144;-54
2023/01/08 06:30:10;;;;;;;2.28;0.90;;;12.20;68.60;;;;;;5044579;28;20037;-52
2023/01/08 06:32:37;;;;;;;5.38;1.02;;;12.20;68.00;;;;;;5051690;28;20064;-54
2023/01/08 06:35:04;;;;;;;1.80;0.52;;;12.20;68.20;;;;;;5048606;28;20648;-53
2023/01/08 06:37:31;;;;;;;1.02;0.60;;;12.20;68.60;;;;;;5051869;28;20043;-53
2023/01/08 06:39:57;;;;;;;3.95;0.70;;;12.20;68.80;;;;;;5052031;28;20037;-51
2023/01/08 06:42:34;;;;;;;3.72;0.70;;;12.20;68.90;;;;;;5049459;28;20041;-53
2023/01/08 06:45:00;;;;;;;1.38;0.82;;;12.20;68.70;;;;;;5049693;28;20045;-54
2023/01/08 06:47:34;;;;;;;2.03;1.02;;;12.20;68.80;;;;;;5050955;28;20045;-53
2023/01/08 06:50:17;;;;;;;4.72;1.38;;;12.20;68.90;;;;;;5049128;28;20063;-52
2023/01/08 06:52:57;;;;;;;1.63;0.80;;;12.20;68.70;;;;;;5043257;28;20045;-53
2023/01/08 06:55:25;;;;;;;1.50;0.90;;;12.20;68.80;;;;;;5049032;28;20123;-54
2023/01/08 06:57:57;;;;;;;1.52;0.40;;;12.20;68.80;;;;;;5051482;28;20045;-53
2023/01/08 07:00:26;;;;;;;0.95;0.60;;;12.10;68.70;;;;;;5050531;28;20044;-53
2023/01/08 07:02:56;;;;;;;0.38;0.38;;;12.10;68.50;;;;;;5045265;28;20049;-49
2023/01/08 07:05:31;;;;;;;2.47;0.98;;;12.10;68.50;;;;;;5051747;28;20064;-49
2023/01/08 07:08:00;;;;;;;1.35;0.50;;;12.10;68.40;;;;;;5041703;28;20120;-50
2023/01/08 07:10:30;;;;;;;0.95;0.40;;;12.10;68.40;;;;;;5047991;28;20508;-50
2023/01/08 07:13:04;;;;;;;0.63;0.30;;;12.10;68.30;;;;;;5037233;28;20099;-49
2023/01/08 07:15:30;;;;;;;1.48;0.43;;;12.10;68.30;;;;;;5050135;28;20041;-52
2023/01/08 07:18:04;;;;;;;2.15;0.60;;;12.00;68.20;;;;;;5049535;28;20098;-54
2023/01/08 07:20:34;;;;;;;0.95;0.38;;;12.00;68.00;;;;;;5050381;28;20049;-50
2023/01/08 07:23:05;;;;;;;2.28;0.57;;;12.00;68.00;;;;;;5041607;28;20536;-50
2023/01/08 07:25:35;;;;;;;1.17;0.50;;;11.90;67.90;;;;;;5050165;28;20664;-52
2023/01/08 07:28:02;;;;;;;3.72;0.65;;;11.90;67.90;;;;;;5048052;28;20143;-54
2023/01/08 07:30:30;;;;;;;2.28;0.40;;;11.80;67.90;;;;;;5044427;28;20940;-51
2023/01/08 07:33:03;;;;;;;2.85;0.52;;;11.80;67.90;;;;;;5045562;28;20504;-50
2023/01/08 07:35:31;;;;;;;2.10;0.60;;;11.70;67.90;;;;;;5049882;28;20128;-51
2023/01/08 07:37:58;;;;;;;2.35;0.63;;;11.60;68.00;;;;;;5049451;28;20822;-51
2023/01/08 07:40:27;;;;;;;1.45;0.47;;;11.60;68.00;;;;;;5047714;28;20527;-53
2023/01/08 07:43:01;;;;;;;1.27;0.60;;;11.50;68.00;;;;;;5049201;28;20083;-52
2023/01/08 07:45:31;;;;;;;4.20;0.80;;;11.50;68.60;;;;;;5049718;28;20052;-49
2023/01/08 07:48:00;;;;;;;4.00;1.02;;;11.40;68.10;;;;;;5048580;28;20495;-51
2023/01/08 07:50:27;;;;;;;1.42;0.75;;;11.40;68.00;;;;;;5042926;28;20041;-50
2023/01/08 07:53:00;;;;;;;3.03;0.82;;;11.30;68.10;;;;;;5049327;28;20044;-52
2023/01/08 07:55:28;;;;;;;4.75;0.88;;;11.30;68.50;;;;;;5049374;28;20553;-47
2023/01/08 07:57:55;;;;;;;1.95;0.98;;;11.30;68.40;;;;;;5049078;28;20115;-52
2023/01/08 08:00:21;;;;;;;3.60;1.23;;;11.20;68.30;;;;;;5045789;28;20123;-54
2023/01/08 08:02:50;;;;;;;3.05;0.85;;;11.20;68.30;;;;;;5029440;28;20703;-54
2023/01/08 08:05:17;;;;;;;3.10;0.77;;;11.20;68.40;;;;;;5027138;28;20041;-50
2023/01/08 08:07:44;;;;;;;3.30;1.00;;;11.10;68.40;;;;;;5022738;28;20077;-50
2023/01/08 08:10:10;;;;;;;3.63;0.75;;;11.10;68.60;;;;;;5026672;28;20044;-54
2023/01/08 08:12:37;;;;;;;3.35;0.95;;;11.10;68.70;;;;;;5048377;28;20049;-51
2023/01/08 08:15:04;;;;;;;1.92;0.82;;;11.10;68.70;;;;;;5040658;28;20045;-48
2023/01/08 08:17:31;;;;;;;6.03;1.02;;;11.10;68.70;;;;;;5043724;28;20543;-51
2023/01/08 08:19:57;;;;;;;5.57;1.17;;;11.00;68.70;;;;;;5042280;28;20045;-51
2023/01/08 08:22:24;;;;;;;1.20;0.50;;;11.00;68.70;;;;;;5040553;28;20041;-49
2023/01/08 08:24:51;;;;;;;6.70;0.93;;;11.00;68.70;;;;;;5047639;28;20055;-54
2023/01/08 08:27:17;;;;;;;2.75;1.05;;;11.00;68.70;;;;;;5044807;28;20039;-52
2023/01/08 08:29:44;;;;;;;2.42;1.27;;;11.10;68.70;;;;;;5039967;28;20037;-50
2023/01/08 08:32:11;;;;;;;2.65;0.95;;;11.00;68.70;;;;;;5048412;28;20041;-49
2023/01/08 08:34:37;;;;;;;2.65;0.80;;;11.10;68.70;;;;;;5038622;28;20121;-51
2023/01/08 08:37:04;;;;;;;5.90;1.27;;;11.10;68.70;;;;;;5038148;28;20087;-54
2023/01/08 08:39:30;;;;;;;3.17;1.58;;;11.10;68.60;;;;;;5034698;28;20040;-52
2023/01/08 08:41:57;;;;;;;6.05;1.23;;;11.10;68.60;;;;;;5047457;28;20044;-50
2023/01/08 08:44:24;;;;;;;2.97;1.17;;;11.10;68.70;;;;;;5048649;28;20040;-52
2023/01/08 08:46:50;;;;;;;2.58;0.70;;;11.20;68.70;;;;;;5042676;28;20122;-52
2023/01/08 08:49:17;;;;;;;5.13;1.70;;;11.20;68.70;;;;;;5039004;28;20045;-51
2023/01/08 08:51:44;;;;;;;3.70;1.27;;;11.20;68.60;;;;;;5028392;28;20051;-50
2023/01/08 08:54:10;;;;;;;2.05;0.80;;;11.20;68.60;;;;;;5044476;28;20649;-52
2023/01/08 08:56:37;;;;;;;5.50;1.40;;;11.30;68.70;;;;;;5045399;28;20052;-52
2023/01/08 08:59:04;;;;;;;5.22;1.42;;;11.30;68.70;;;;;;5048324;28;20052;-52
2023/01/08 09:01:30;;;;;;;2.60;1.15;;;11.40;68.80;;;;;;5045322;28;20044;-58
2023/01/08 09:03:57;;;;;;;2.95;1.05;;;11.40;69.00;;;;;;5042890;28;20041;-54
2023/01/08 09:06:26;;;;;;;2.10;0.77;;;11.50;69.10;;;;;;5045027;28;20144;-51
2023/01/08 09:08:55;;;;;;;2.10;1.13;;;11.50;69.00;;;;;;5044460;28;20045;-54
2023/01/08 09:11:24;;;;;;;3.67;1.10;;;11.60;69.00;;;;;;5048652;28;20068;-51
2023/01/08 09:13:55;;;;;;;2.30;0.85;;;11.70;69.10;;;;;;5028998;28;20041;-52
2023/01/08 09:16:23;;;;;;;;;;;11.80;69.20;;;;;;5045156;28;20045;-48
2023/01/08 09:18:50;;;;;;;3.58;0.95;;;11.90;69.30;;;;;;5048797;28;20305;-51
2023/01/08 09:21:21;;;;;;;2.88;0.70;;;12.10;68.90;;;;;;5048555;28;20563;-47
2023/01/08 09:23:48;;;;;;;4.40;1.25;;;12.10;68.80;;;;;;5039723;28;20050;-48
2023/01/08 09:26:16;;;;;;;3.53;0.75;;;12.20;68.50;;;;;;5030917;28;20153;-49
2023/01/08 09:28:45;;;;;;;3.60;1.00;;;12.30;68.50;;;;;;5050153;28;20537;-49
2023/01/08 09:31:18;;;;;;;3.97;1.13;;;12.40;68.30;;;;;;5041567;28;20083;-48
2023/01/08 09:33:56;;;;;;;4.13;1.27;;;12.50;68.20;;;;;;5045174;28;20044;-49
2023/01/08 09:36:25;;;;;;;2.45;1.00;;;12.50;68.10;;;;;;5048702;28;20047;-49
2023/01/08 09:38:51;;;;;;;5.25;1.30;;;12.60;68.00;;;;;;5049770;28;20045;-50
2023/01/08 09:41:25;;;;;;;4.30;1.10;;;12.70;67.90;;;;;;5030918;28;20063;-51
2023/01/08 09:43:54;;;;;;;2.97;1.17;;;12.70;67.80;;;;;;5044271;28;20045;-48
2023/01/08 09:46:33;;;;;;;3.55;1.30;;;12.70;67.60;;;;;;5049191;28;20049;-49
2023/01/08 09:49:05;;;;;;;4.88;1.42;;;12.80;67.60;;;;;;5049734;28;20041;-54
2023/01/08 09:51:37;;;;;;;3.28;1.17;;;12.90;67.60;;;;;;5044695;28;20433;-50
2023/01/08 09:54:06;;;;;;;2.78;0.95;;;12.90;67.50;;;;;;5030608;28;20037;-49
2023/01/08 09:56:34;;;;;;;2.88;1.15;;;13.00;67.40;;;;;;5045165;28;20456;-49
2023/01/08 09:59:03;;;;;;;4.15;1.13;;;13.10;67.30;;;;;;5046389;28;20124;-50
2023/01/08 10:01:35;;;;;;;1.58;0.88;;;13.20;67.40;;;;;;5046191;28;20135;-50
2023/01/08 10:04:15;;;;;;;3.05;1.08;;;13.30;67.20;;;;;;5050935;28;20045;-48
2023/01/08 10:07:13;;;;;;;2.33;1.10;;;13.30;67.00;;;;;;5051516;28;20529;-50
2023/01/08 10:09:39;;;;;;;1.50;1.00;;;13.40;66.70;;;;;;5044534;28;20120;-50
2023/01/08 10:12:10;;;;;;;2.08;1.10;;;13.50;66.80;;;;;;5052238;28;20125;-48
2023/01/08 10:14:39;;;;;;;3.22;1.20;;;13.60;66.80;;;;;;5049870;28;20509;-51
2023/01/08 10:17:35;;;;;;;1.30;0.70;;;13.70;66.50;;;;;;5050733;28;20045;-48
2023/01/08 10:20:21;;;;;;;3.35;1.10;;;13.80;65.80;;;;;;5045857;28;20071;-49
2023/01/08 10:22:49;;;;;;;2.97;1.10;;;13.80;65.70;;;;;;5052036;28;20037;-52
2023/01/08 10:25:19;;;;;;;2.78;0.90;;;13.80;65.50;;;;;;5044079;28;20044;-52
2023/01/08 10:27:49;;;;;;;2.60;1.33;;;13.90;65.20;;;;;;5021023;28;20056;-49
2023/01/08 10:30:42;;;;;;;1.67;0.85;;;13.90;65.10;;;;;;5047728;28;20094;-47
2023/01/08 10:33:19;;;;;;;2.40;0.90;;;13.90;64.80;;;;;;5042677;28;20623;-50
2023/01/08 10:36:02;;;;;;;1.95;0.90;;;13.90;65.00;;;;;;5049973;28;20050;-49
2023/01/08 10:38:30;;;;;;;3.17;1.00;;;14.00;64.90;;;;;;5044285;28;20116;-49
2023/01/08 10:41:02;;;;;;;1.27;0.90;;;14.00;65.00;;;;;;5050688;28;20527;-50
2023/01/08 10:43:32;;;;;;;1.77;0.75;;;14.00;65.00;;;;;;5052232;28;20117;-48
2023/01/08 10:46:06;;;;;;;1.08;0.63;;;14.00;64.90;;;;;;5043343;28;20065;-49
2023/01/08 10:48:54;;;;;;;3.17;0.88;;;14.10;64.90;;;;;;5046142;28;20072;-46
2023/01/08 10:51:23;;;;;;;2.53;1.42;;;14.10;64.80;;;;;;5042102;28;20045;-50
2023/01/08 10:53:52;;;;;;;2.45;0.75;;;14.00;65.10;;;;;;5051783;28;20072;-57
2023/01/08 10:56:21;;;;;;;0.65;0.60;;;14.00;65.40;;;;;;5039609;28;20485;-48
2023/01/08 10:58:49;;;;;;;3.17;0.95;;;14.00;65.50;;;;;;5045863;28;20233;-49
2023/01/08 11:01:27;;;;;;;1.20;0.80;;;13.90;65.60;;;;;;5051285;28;20045;-52
2023/01/08 11:04:04;;;;;;;1.67;0.85;;;13.90;66.10;;;;;;5051747;28;20036;-50
2023/01/08 11:06:35;;;;;;;3.75;0.60;;;13.90;66.30;;;;;;5020850;28;20505;-47
2023/01/08 11:09:24;;;;;;;1.10;0.63;;;13.90;66.30;;;;;;5044036;28;20044;-47
2023/01/08 11:11:51;;;;;;;2.63;0.80;;;13.80;66.40;;;;;;5050227;28;20560;-55
2023/01/08 11:14:28;;;;;;;4.43;0.70;;;13.80;66.50;;;;;;5044431;28;20560;-47
2023/01/08 11:16:56;;;;;;;2.22;0.80;;;13.80;66.90;;;;;;5039553;28;20042;-51
2023/01/08 11:19:26;;;;;;;3.00;1.40;;;13.80;67.00;;;;;;5050838;28;20493;-49
2023/01/08 11:22:17;;;;;;;1.70;0.73;;;13.80;67.10;;;;;;5048606;28;20049;-50
2023/01/08 11:24:45;;;;;;;1.55;0.70;;;13.80;67.10;;;;;;5027924;28;20065;-50
2023/01/08 11:27:12;;;;;;;1.83;0.80;;;13.80;66.90;;;;;;5043611;28;20435;-50
2023/01/08 11:29:56;;;;;;;2.30;0.73;;;13.80;66.70;;;;;;5047279;28;20060;-54
2023/01/08 11:32:32;;;;;;;2.72;0.73;;;13.70;66.40;;;;;;5042195;28;20045;-45
2023/01/08 11:35:11;;;;;;;7.32;1.05;;;13.70;66.10;;;;;;5040636;28;20494;-51
2023/01/08 11:37:59;;;;;;;1.48;1.08;;;13.70;66.30;;;;;;5031659;28;20132;-49
2023/01/08 11:40:48;;;;;;;1.63;0.60;;;13.60;66.40;;;;;;5042475;28;20044;-49
2023/01/08 11:43:24;;;;;;;1.58;0.43;;;13.50;66.30;;;;;;5046189;28;20111;-47
2023/01/08 11:46:16;;;;;;;1.65;0.77;;;13.50;66.40;;;;;;5046285;28;20614;-52
2023/01/08 11:48:49;;;;;;;1.88;0.43;;;13.40;66.40;;;;;;5041137;28;20037;-48
2023/01/08 11:51:28;;;;;;;1.45;0.70;;;13.30;66.30;;;;;;5047984;28;20516;-49
2023/01/08 11:54:01;;;;;;;5.43;0.80;;;13.30;66.20;;;;;;5040659;28;20557;-47
2023/01/08 11:56:46;;;;;;;4.05;1.10;;;13.30;66.20;;;;;;5049722;28;20040;-49
2023/01/08 11:59:35;;;;;;;1.70;0.75;;;13.20;66.40;;;;;;5048421;28;20037;-52
2023/01/08 12:02:40;;;;;;;1.67;0.80;;;13.30;66.00;;;;;;5045738;28;20053;-45
2023/01/08 12:05:49;;;;;;;0.95;0.50;;;13.30;66.20;;;;;;5048878;28;20041;-47
2023/01/08 12:08:18;;;;;;;0.60;0.50;;;13.30;65.50;;;;;;5035697;28;20067;-50
2023/01/08 12:11:13;;;;;;;4.57;1.65;;;13.30;65.50;;;;;;5037403;28;20048;-49
2023/01/08 12:14:04;;;;;;;1.48;1.02;;;13.30;64.90;;;;;;5042296;28;20045;-47
2023/01/08 12:16:45;;;;;;;1.23;0.98;;;13.30;64.70;;;;;;5042687;28;20120;-45
2023/01/08 12:19:26;;;;;;;1.48;0.80;;;13.40;64.80;;;;;;5050360;28;20056;-50
2023/01/08 12:22:34;;;;;;;2.83;0.57;;;13.30;64.60;;;;;;5048418;28;20524;-46
2023/01/08 12:25:40;;;;;;;0.90;0.50;;;13.30;64.60;;;;;;5047874;28;20049;-50
2023/01/08 12:28:16;;;;;;;1.08;0.80;;;13.30;64.70;;;;;;5047076;28;20059;-46
2023/01/08 12:31:11;;;;;;;2.75;0.70;;;13.30;64.90;;;;;;5046352;28;20103;-47
2023/01/08 12:33:53;;;;;;;1.40;0.40;;;13.40;64.60;;;;;;5041931;28;20041;-50
2023/01/08 12:36:27;;;;;;;2.15;0.50;;;13.40;64.60;;;;;;5040978;28;20041;-46
2023/01/08 12:39:02;;;;;;;1.60;0.70;;;13.40;64.50;;;;;;5045487;28;20051;-46
2023/01/08 12:41:33;;;;;;;1.98;0.45;;;13.50;64.60;;;;;;5042591;28;20119;-46
2023/01/08 12:44:10;;;;;;;0.50;0.50;;;13.50;64.30;;;;;;5049672;28;20560;-48
2023/01/08 12:46:41;;;;;;;1.77;0.40;;;13.60;64.00;;;;;;5031359;28;20080;-50
2023/01/08 12:49:14;;;;;;;0.68;0.50;;;13.60;64.00;;;;;;5047416;28;20048;-44
2023/01/08 12:52:02;;;;;;;0.82;0.32;;;13.60;63.50;;;;;;5040202;28;20055;-46
2023/01/08 12:54:50;;;;;;;0.32;0.20;;;13.70;63.50;;;;;;5043911;28;20568;-45
2023/01/08 12:57:41;;;;;;;1.02;0.47;;;13.70;63.40;;;;;;5048090;28;20574;-47
2023/01/08 13:00:35;;;;;;;1.38;0.65;;;13.80;63.60;;;;;;5045952;28;20045;-50
2023/01/08 13:03:04;;;;;;;2.67;0.75;;;13.80;63.10;;;;;;5049305;28;20181;-47
2023/01/08 13:05:36;;;;;;;2.72;0.57;;;13.80;63.30;;;;;;5049836;28;20037;-48
2023/01/08 13:08:06;;;;;;;0.97;0.70;;;13.80;63.20;;;;;;5040866;28;20060;-49
2023/01/08 13:10:39;;;;;;;1.05;0.57;;;13.80;63.60;;;;;;5045920;28;20041;-48
2023/01/08 13:13:07;;;;;;;;;;;13.80;63.30;;;;;;5045253;28;20701;-43
2023/01/08 13:15:36;;;;;;;1.63;0.63;;;13.90;63.40;;;;;;5044971;28;19927;-50
2023/01/08 13:18:16;;;;;;;0.90;0.50;;;13.90;63.30;;;;;;5035043;28;20034;-49